Clifton Heights, Pennsylvania
Current Conditions -  °F | °C
As of 12:54 PM on Thursday 23 Oct 2014 (Local Time) from KPHL Reporting Station
Overcast Overcast  
Wind Chill: 55°   Ceiling: 4500
Heat Index: 55°   Visibility: 10mi
Dew Point: 46°   Wind: 16mph
Humidity: 72%   Direction: 320°NW
Pressure: 29.78"   Gusts: NA
Location:  39.93°N, 75.3°W
Report Text: KPHL 231654Z 32014KT 10SM FEW015 BKN045 OVC070 13/08 A2978 RMK AO2 SLP085 T01280078 PNO $
Loading
Personal Weather Stations






























Interactive Weather Map
Tropical Storm Tracking
New forecast layout! Learn more

10-Day Weather Forecast

Advertisements
Track Severe Weather on mobile